Latest Weather Observations for Edinburgh

IDS60901

Issued at 6:31 pm CST Monday 1 June 2020 (issued every 10 minutes, with the page automatically refreshed every 10 minutes)

About weather observations | Map of Adelaide area stations | Latest observations for Adelaide area | Other Formats
Station Details ID: 023083 Name: EDINBURGH RAAF Lat: -34.71 Lon: 138.62 Height: 16.54 m
Data from the previous 72 hours. | See also: Recent months at Edinburgh
Date/Time
CST
Temp
°C
App
Temp
°C
Dew
Point
°C
Rel
Hum
%
Delta-T
°C
Wind Press
QNH
hPa
Press
MSL
hPa
Rain since
9am
mm
Dir  Spd
km/h
Gust
km/h
Spd
kts
Gust
kts
01/06:30pm 11.0 8.7 8.9 87 1.0 WSW 11 15 6 8 1022.0 1022.0 0.0
01/06:00pm 10.4 8.2 8.0 85 1.2 WSW 9 13 5 7 1021.4 1021.4 0.0
01/05:30pm 10.9 8.4 8.1 83 1.4 SW 11 17 6 9 1021.0 1021.0 0.0
01/05:00pm 12.5 9.1 7.6 72 2.4 SW 15 20 8 11 1020.9 1020.9 0.0
01/04:30pm 12.8 8.4 7.5 70 2.6 WSW 20 24 11 13 1020.5 1020.5 0.0
01/04:00pm 13.0 7.8 7.2 68 2.8 WSW 24 32 13 17 1020.2 1020.2 0.0
01/03:30pm 13.7 8.6 7.5 66 3.0 WSW 24 32 13 17 1020.0 1020.0 0.0
01/03:00pm 13.1 6.2 6.5 64 3.1 SW 32 41 17 22 1019.9 1019.9 0.0
01/02:30pm 13.7 6.4 7.2 65 3.2 SW 35 44 19 24 1019.6 1019.6 0.0
01/02:00pm 13.8 6.7 6.4 61 3.5 WSW 33 44 18 24 1019.2 1019.2 0.0
01/01:30pm 13.9 5.6 6.3 60 3.6 SW 39 50 21 27 1019.2 1019.2 0.0
01/01:00pm 14.0 6.6 6.6 61 3.6 SW 35 48 19 26 1019.1 1019.1 0.0
01/12:30pm 14.0 6.7 7.3 64 3.3 SW 35 43 19 23 1019.1 1019.1 0.0
01/12:00pm 13.4 5.2 6.7 64 3.2 SW 39 50 21 27 1019.1 1019.1 0.0
01/11:30am 14.1 6.8 7.2 63 3.4 SW 35 48 19 26 1019.3 1019.3 0.0
01/11:00am 13.3 5.5 6.6 64 3.2 SW 37 48 20 26 1019.2 1019.2 0.0
01/10:30am 13.2 5.8 6.8 65 3.1 SW 35 44 19 24 1019.1 1019.1 0.0
01/10:00am 12.8 4.9 6.2 64 3.1 SW 37 50 20 27 1018.6 1018.6 0.0
01/09:30am 12.5 4.7 5.0 60 3.4 SW 35 46 19 25 1018.2 1018.2 0.0
01/09:00am 11.7 4.0 5.3 65 2.9 SW 35 46 19 25 1018.0 1018.0 8.4
01/08:30am 11.3 4.1 5.2 66 2.8 SW 32 41 17 22 1017.6 1017.6 8.4
01/08:00am 11.1 3.2 4.6 64 2.9 SW 35 48 19 26 1017.1 1017.1 8.4
01/07:30am 10.9 3.6 4.6 65 2.8 SW 32 44 17 24 1016.5 1016.5 8.4
01/07:00am 10.3 2.8 4.5 67 2.6 SW 33 39 18 21 1016.0 1016.0 8.4
01/06:30am 10.5 4.0 4.9 68 2.5 SW 28 41 15 22 1015.3 1015.3 8.4
01/06:00am 10.3 3.3 4.0 65 2.8 SW 30 41 16 22 1014.9 1014.9 8.4
01/05:30am 10.4 3.5 4.5 67 2.6 SW 30 39 16 21 1014.6 1014.5 8.4
01/05:00am 10.1 2.5 4.0 66 2.7 SW 33 44 18 24 1014.2 1014.1 8.4
01/04:30am 10.6 3.1 4.7 67 2.7 SW 33 46 18 25 1013.8 1013.7 8.4
01/04:00am 10.5 2.6 4.4 66 2.7 SW 35 46 19 25 1013.6 1013.5 8.4
01/03:39am 10.5 1.9 4.4 66 2.7 SW 39 57 21 31 1013.4 1013.3 8.4
01/03:30am 10.7 2.1 4.4 65 2.8 SW 39 54 21 29 1013.2 1013.1 8.4
01/03:00am 10.8 2.2 4.7 66 2.8 SW 39 54 21 29 1012.9 1012.8 8.4
01/02:30am 10.7 2.2 5.0 68 2.6 SW 39 50 21 27 1012.5 1012.4 8.4
01/02:00am 11.2 2.0 5.3 67 2.7 SW 43 56 23 30 1011.9 1011.8 8.4
01/01:50am 11.4 3.3 5.3 66 2.8 SW 37 57 20 31 1011.7 1011.6 8.4
01/01:30am 11.3 4.3 5.8 69 2.6 SW 32 41 17 22 1011.6 1011.5 8.4
01/01:00am 11.8 3.1 6.1 68 2.7 SW 41 54 22 29 1011.1 1011.0 8.4
01/12:50am 11.8 3.8 5.9 67 2.8 SW 37 56 20 30 1011.0 1010.9 8.4
01/12:30am 11.7 3.7 7.6 76 2.0 SW 39 50 21 27 1010.8 1010.7 8.4
01/12:18am 11.8 3.0 7.1 73 2.3 SW 43 67 23 36 1010.4 1010.3 8.4
01/12:15am 12.0 4.0 7.3 73 2.3 SW 39 67 21 36 1010.2 1010.1 8.4
01/12:13am 12.4 5.5 7.1 70 2.6 SW 33 61 18 33 1010.4 1010.3 8.4
01/12:00am 12.6 3.7 6.9 68 2.7 SW 43 57 23 31 1010.0 1009.9 8.4
 
Date/Time
CST
Temp
°C
App
Temp
°C
Dew
Point
°C
Rel
Hum
%
Delta-T
°C
Wind Press
QNH
hPa
Press
MSL
hPa
Rain since
9am
mm
Dir  Spd
km/h
Gust
km/h
Spd
kts
Gust
kts
31/11:44pm 12.7 6.8 9.0 78 1.9 WSW 30 50 16 27 1009.8 1009.7 8.4
31/11:30pm 12.0 7.1 9.9 87 1.1 WSW 26 39 14 21 1009.9 1009.8 8.4
31/11:19pm 11.7 5.6 9.8 88 1.0 W 32 43 17 23 1009.8 1009.7 8.4
31/11:12pm 11.5 4.8 9.6 88 1.0 W 35 44 19 24 1009.7 1009.6 8.2
31/11:07pm 11.4 3.9 9.5 88 1.0 W 39 57 21 31 1009.8 1009.7 8.2
31/11:01pm 11.6 3.8 9.9 89 0.9 WNW 41 57 22 31 1009.8 1009.7 7.8
31/11:00pm 11.6 3.8 9.9 89 0.9 WNW 41 57 22 31 1009.8 1009.7 7.8
31/10:57pm 11.6 4.3 10.2 91 0.7 WNW 39 56 21 30 1009.9 1009.8 7.4
31/10:54pm 11.6 3.9 10.0 90 0.8 NW 41 54 22 29 1009.6 1009.5 6.4
31/10:46pm 11.7 3.3 9.8 88 1.0 NW 44 59 24 32 1008.9 1008.8 4.6
31/10:30pm 12.1 3.0 9.7 85 1.2 NNW 48 69 26 37 1008.8 1008.7 4.0
31/10:11pm 12.1 4.7 9.8 86 1.2 NNW 39 57 21 31 1009.0 1008.9 3.8
31/10:06pm 12.1 5.8 9.8 86 1.2 NNW 33 46 18 25 1009.0 1008.9 3.8
31/10:00pm 12.1 6.1 10.0 87 1.1 NNW 32 44 17 24 1009.2 1009.1 3.6
31/09:50pm 12.0 5.4 10.1 88 1.0 NW 35 46 19 25 1009.6 1009.5 3.6
31/09:30pm 12.1 5.9 10.2 88 1.0 NNW 33 44 18 24 1009.9 1009.8 2.6
31/09:00pm 12.1 7.2 10.0 87 1.1 NNW 26 35 14 19 1010.1 1010.0 1.4
31/08:30pm 12.1 7.6 10.2 88 1.0 NNW 24 33 13 18 1010.3 1010.2 1.0
31/08:02pm 12.0 6.4 10.2 89 0.9 NNW 30 41 16 22 1010.8 1010.7 1.0
31/08:00pm 12.1 6.5 10.3 89 0.9 NNW 30 41 16 22 1010.8 1010.7 1.0
31/07:42pm 12.1 6.2 10.3 89 0.9 NNW 32 43 17 23 1010.9 1010.8 1.0
31/07:30pm 12.0 6.8 10.2 89 0.9 NNW 28 35 15 19 1011.0 1010.9 1.0
31/07:00pm 12.2 7.3 9.9 86 1.2 NNW 26 37 14 20 1011.3 1011.2 0.4
31/06:30pm 12.9 7.9 9.4 79 1.8 NNW 26 33 14 18 1011.4 1011.3 0.0
31/06:00pm 13.3 7.4 9.0 75 2.2 NW 30 39 16 21 1011.4 1011.3 0.0
31/05:30pm 14.0 9.4 8.0 67 3.0 NNW 22 30 12 16 1011.5 1011.4 0.0
31/05:00pm 14.1 8.7 7.9 66 3.1 NNW 26 32 14 17 1011.5 1011.4 0.0
31/04:30pm 14.2 9.2 8.2 67 3.0 NNW 24 32 13 17 1011.7 1011.6 0.0
31/04:00pm 14.3 9.3 8.0 66 3.1 NW 24 33 13 18 1012.1 1012.0 0.0
31/03:30pm 14.5 8.7 8.0 65 3.2 NW 28 35 15 19 1012.4 1012.3 0.0
31/03:00pm 14.3 10.2 8.5 68 2.9 NW 20 30 11 16 1012.7 1012.6 0.0
31/02:30pm 13.7 9.0 7.9 68 2.9 NW 22 30 12 16 1013.0 1012.9 0.0
31/02:00pm 13.5 9.2 7.9 69 2.8 NW 20 28 11 15 1013.1 1013.0 0.0
31/01:30pm 14.2 9.1 7.5 64 3.3 NW 24 37 13 20 1013.4 1013.3 0.0
31/01:00pm 14.3 8.5 7.8 65 3.2 NW 28 35 15 19 1013.8 1013.7 0.0
31/12:30pm 13.9 8.8 7.7 66 3.1 NW 24 32 13 17 1014.3 1014.2 0.0
31/12:00pm 14.4 8.9 7.7 64 3.3 WNW 26 33 14 18 1014.9 1014.9 0.0
31/11:30am 14.1 9.1 8.1 67 3.0 WNW 24 32 13 17 1015.3 1015.3 0.0
31/11:00am 13.9 9.3 9.7 76 2.2 NW 24 30 13 16 1015.6 1015.6 0.0
31/10:35am 13.9 9.5 9.1 73 2.4 NW 22 28 12 15 1015.6 1015.6 0.0
31/10:30am 13.7 9.2 10.1 79 1.9 NW 24 32 13 17 1015.7 1015.7 0.0
31/10:05am 13.2 9.4 11.1 87 1.1 NNW 22 28 12 15 1015.9 1015.9 0.0
31/10:00am 13.1 9.6 11.0 87 1.1 NNW 20 28 11 15 1016.0 1016.0 0.0
31/09:30am 12.0 9.4 10.6 91 0.7 NNW 15 20 8 11 1016.2 1016.2 0.0
31/09:00am 10.3 7.3 9.2 93 0.5 N 15 19 8 10 1016.0 1016.0 4.0
31/08:57am 10.2 7.2 9.1 93 0.5 N 15 19 8 10 1016.0 1016.0 4.0
31/08:30am 9.5 7.0 8.4 93 0.5 NNE 11 15 6 8 1015.9 1015.9 4.0
31/08:00am 9.3 6.4 8.2 93 0.5 NNE 13 15 7 8 1015.7 1015.7 4.0
31/07:30am 8.7 6.1 7.6 93 0.5 NE 11 13 6 7 1015.4 1015.4 4.0
31/07:28am 8.7 6.1 7.6 93 0.5 NE 11 13 6 7 1015.4 1015.4 4.0
31/07:00am 8.9 5.9 7.7 92 0.6 NNE 13 15 7 8 1015.3 1015.3 4.0
31/06:30am 9.0 5.9 7.3 89 0.8 NW 13 15 7 8 1015.0 1015.0 3.8
31/06:00am 10.4 7.6 8.7 89 0.8 NW 13 15 7 8 1014.9 1014.9 3.8
31/05:30am 11.0 7.1 9.6 91 0.7 WNW 20 28 11 15 1015.2 1015.2 3.8
31/05:15am 10.7 7.3 9.3 91 0.7 WNW 17 20 9 11 1015.1 1015.1 3.8
31/05:03am 10.7 6.8 9.5 92 0.6 WNW 20 28 11 15 1014.9 1014.9 3.8
31/05:00am 10.7 7.0 9.5 92 0.6 WNW 19 28 10 15 1014.9 1014.9 3.6
31/04:35am 9.5 7.4 8.4 93 0.5 N 9 13 5 7 1014.8 1014.8 3.6
31/04:30am 9.4 7.3 8.3 93 0.5 N 9 11 5 6 1014.7 1014.7 3.6
31/04:00am 9.5 7.4 8.3 92 0.6 N 9 11 5 6 1014.4 1014.3 3.4
31/03:30am 10.9 8.8 9.7 92 0.6 NW 11 13 6 7 1014.6 1014.5 3.4
31/03:00am 10.9 8.3 9.5 91 0.7 NW 13 19 7 10 1014.5 1014.4 3.4
31/02:46am 11.4 8.6 10.0 91 0.7 NW 15 19 8 10 1014.6 1014.5 3.4
31/02:30am 11.1 8.2 9.7 91 0.7 NW 15 20 8 11 1014.6 1014.5 3.2
31/02:00am 11.1 7.5 10.0 93 0.6 WSW 19 24 10 13 1014.7 1014.7 2.4
31/01:56am 11.1 8.3 10.0 93 0.6 SW 15 22 8 12 1014.8 1014.8 2.0
31/01:30am 9.9 6.8 8.8 93 0.5 N 15 17 8 9 1014.7 1014.7 0.4
31/01:00am 10.3 7.3 9.1 92 0.6 N 15 17 8 9 1014.6 1014.5 0.4
31/12:30am 10.8 7.8 9.4 91 0.7 NNW 15 17 8 9 1014.5 1014.4 0.4
31/12:00am 10.6 7.9 9.0 90 0.8 NNW 13 15 7 8 1014.7 1014.7 0.4
 
Date/Time
CST
Temp
°C
App
Temp
°C
Dew
Point
°C
Rel
Hum
%
Delta-T
°C
Wind Press
QNH
hPa
Press
MSL
hPa
Rain since
9am
mm
Dir  Spd
km/h
Gust
km/h
Spd
kts
Gust
kts
30/11:30pm 11.4 8.1 9.5 88 1.0 NW 17 20 9 11 1014.5 1014.4 0.4
30/11:00pm 12.2 9.0 10.1 87 1.1 NW 17 20 9 11 1014.4 1014.3 0.4
30/10:30pm 12.1 8.5 9.8 86 1.2 NW 19 24 10 13 1014.3 1014.2 0.4
30/10:00pm 12.6 8.4 9.8 83 1.4 NW 22 30 12 16 1014.1 1014.0 0.4
30/09:30pm 13.0 8.1 9.8 81 1.6 NW 26 37 14 20 1013.8 1013.7 0.4
30/09:00pm 13.2 7.4 9.6 79 1.8 NW 30 39 16 21 1013.3 1013.2 0.4
30/08:30pm 13.5 7.4 9.6 77 2.0 NW 32 41 17 22 1013.4 1013.3 0.4
30/08:00pm 13.7 8.4 8.3 70 2.7 NNW 26 37 14 20 1013.3 1013.2 0.4
30/07:30pm 13.7 8.0 8.3 70 2.7 NNW 28 43 15 23 1013.2 1013.1 0.4
30/07:00pm 15.3 9.1 6.3 55 4.4 NNW 28 41 15 22 1013.1 1013.0 0.2
30/06:30pm 15.4 8.8 6.2 54 4.4 NNW 30 46 16 25 1012.5 1012.4 0.2
30/06:22pm 15.6 9.4 6.1 53 4.6 NNW 28 46 15 25 1012.4 1012.3 0.2
30/06:00pm 15.4 9.9 5.9 53 4.6 NNW 24 35 13 19 1012.0 1011.9 0.2
30/05:30pm 15.7 8.4 5.6 51 4.8 NNW 33 44 18 24 1011.6 1011.5 0.2
30/05:18pm 15.7 8.1 5.6 51 4.8 NNW 35 56 19 30 1011.5 1011.4 0.2
30/05:00pm 15.6 8.3 5.5 51 4.8 N 33 46 18 25 1011.3 1011.2 0.2
30/04:30pm 16.8 8.7 5.1 46 5.6 N 37 57 20 31 1011.1 1011.0 0.2
30/04:10pm 16.5 8.8 5.5 48 5.3 N 35 54 19 29 1010.8 1010.7 0.2
30/04:00pm 16.2 8.2 5.5 49 5.1 N 37 48 20 26 1010.8 1010.7 0.2
30/03:37pm 15.9 8.4 6.3 53 4.7 N 35 54 19 29 1010.9 1010.8 0.2
30/03:30pm 15.3 7.5 6.6 56 4.2 N 37 50 20 27 1010.9 1010.8 0.2
30/03:03pm 15.2 7.0 6.5 56 4.2 N 39 57 21 31 1011.0 1010.9 0.0
30/03:00pm 15.6 7.0 6.6 55 4.4 N 41 57 22 31 1010.8 1010.7 0.0
30/02:42pm 16.2 6.3 4.9 47 5.3 N 46 65 25 35 1010.8 1010.7 0.0
30/02:30pm 17.5 7.5 2.3 36 6.9 N 44 61 24 33 1011.1 1011.0 0.0
30/02:15pm 17.5 7.6 1.9 35 7.0 N 43 61 23 33 1011.1 1011.0 0.0
30/02:00pm 17.6 7.6 2.0 35 7.0 NNW 44 59 24 32 1011.5 1011.4 0.0
30/01:30pm 17.9 7.1 1.8 34 7.2 NNW 48 69 26 37 1012.4 1012.3 0.0
30/01:24pm 18.0 7.6 1.9 34 7.3 NNW 46 69 25 37 1012.4 1012.3 0.0
30/01:00pm 18.4 11.4 1.9 33 7.5 NNW 28 48 15 26 1012.5 1012.4 0.0
30/12:41pm 18.4 8.9 1.9 33 7.5 NNW 41 59 22 32 1012.5 1012.4 0.0
30/12:30pm 18.7 8.3 2.1 33 7.6 NNW 46 59 25 32 1012.2 1012.1 0.0
30/12:12pm 19.7 9.2 1.7 30 8.2 N 46 65 25 35 1012.1 1012.0 0.0
30/12:00pm 19.5 9.7 2.4 32 7.9 N 43 56 23 30 1012.1 1012.0 0.0
30/11:30am 19.3 9.7 3.5 35 7.4 N 43 57 23 31 1013.1 1013.0 0.0
30/11:00am 18.5 9.2 2.8 35 7.2 N 41 59 22 32 1013.3 1013.2 0.0
30/10:30am 18.2 8.8 2.5 35 7.2 N 41 63 22 34 1014.3 1014.2 0.0
30/10:01am 17.6 9.5 3.1 38 6.7 NNE 35 57 19 31 1014.6 1014.5 0.0
30/10:00am 17.5 9.9 3.8 40 6.4 NNE 33 44 18 24 1014.6 1014.5 0.0
30/09:30am 15.3 9.6 4.7 49 5.0 NE 24 30 13 16 1015.5 1015.5 0.0
30/09:00am 13.7 7.0 3.8 51 4.5 NE 28 37 15 20 1016.0 1016.0 0.0
30/08:30am 13.0 6.3 3.4 52 4.3 NNE 28 35 15 19 1016.8 1016.8 0.0
30/08:00am 11.7 5.3 3.2 56 3.7 NE 26 33 14 18 1017.1 1017.1 0.0
30/07:30am 11.2 5.1 3.0 57 3.6 NE 24 28 13 15 1017.4 1017.4 0.0
30/07:00am 11.7 5.3 3.0 55 3.8 NE 26 32 14 17 1017.7 1017.7 0.0
30/06:30am 11.4 5.0 3.2 57 3.6 NE 26 33 14 18 1018.1 1018.1 0.0
30/06:00am 10.6 5.0 3.4 61 3.1 NE 22 28 12 15 1018.3 1018.3 0.0
30/05:30am 9.7 4.5 3.7 66 2.6 NE 20 24 11 13 1018.3 1018.3 0.0
30/05:00am 10.1 4.9 3.4 63 2.9 NE 20 26 11 14 1018.2 1018.2 0.0
30/04:30am 10.0 4.8 3.5 64 2.8 NE 20 24 11 13 1018.6 1018.6 0.0
30/04:00am 9.6 4.4 3.4 65 2.7 NE 20 24 11 13 1018.9 1018.9 0.0
30/03:30am 9.6 4.5 3.1 64 2.8 NE 19 22 10 12 1019.0 1019.0 0.0
30/03:00am 9.1 4.0 3.3 67 2.5 NE 19 22 10 12 1019.4 1019.4 0.0
30/02:30am 9.2 4.2 3.4 67 2.5 NE 19 20 10 11 1019.5 1019.5 0.0
30/02:00am 9.2 4.2 3.6 68 2.4 NE 19 22 10 12 1019.7 1019.7 0.0
30/01:30am 9.1 4.5 3.7 69 2.3 NE 17 19 9 10 1019.9 1019.9 0.0
30/01:00am 9.4 4.8 3.6 67 2.5 NE 17 19 9 10 1020.1 1020.1 0.0
30/12:30am 9.6 5.0 3.8 67 2.5 NE 17 19 9 10 1020.3 1020.3 0.0
30/12:00am 9.7 5.1 3.9 67 2.5 NE 17 19 9 10 1020.7 1020.7 0.0
 
Date/Time
CST
Temp
°C
App
Temp
°C
Dew
Point
°C
Rel
Hum
%
Delta-T
°C
Wind Press
QNH
hPa
Press
MSL
hPa
Rain since
9am
mm
Dir  Spd
km/h
Gust
km/h
Spd
kts
Gust
kts
29/11:30pm 10.5 5.6 4.2 65 2.8 NE 19 22 10 12 1020.9 1020.9 0.0
29/11:00pm 10.7 5.8 4.2 64 2.9 NE 19 22 10 12 1021.2 1021.2 0.0
29/10:30pm 11.0 6.2 4.5 64 2.9 NE 19 22 10 12 1021.3 1021.3 0.0
29/10:00pm 10.9 6.1 4.6 65 2.8 NE 19 20 10 11 1021.7 1021.7 0.0
29/09:30pm 10.8 6.7 4.3 64 2.9 NE 15 19 8 10 1021.9 1021.9 0.0
29/09:00pm 10.7 6.6 4.4 65 2.8 NE 15 17 8 9 1022.2 1022.2 0.0
29/08:30pm 10.8 6.7 4.5 65 2.8 NE 15 17 8 9 1022.4 1022.4 0.0
29/08:00pm 11.6 7.2 4.6 62 3.2 NE 17 19 9 10 1022.3 1022.3 0.0
29/07:30pm 11.8 8.2 5.0 63 3.1 NE 13 17 7 9 1022.3 1022.3 0.0
29/07:00pm 13.0 9.1 5.2 59 3.6 ENE 15 17 8 9 1022.3 1022.3 0.0

Latest Capital City Observations: Canberra | Sydney | Melbourne | Brisbane | Adelaide | Perth | Hobart | Darwin

Other formats

Comma delimited format used in spreadsheet applications
http://www.bom.gov.au/fwo/IDS60901/IDS60901.95676.axf

JavaScript Object Notation format (JSON) in row-major order
http://www.bom.gov.au/fwo/IDS60901/IDS60901.95676.json

Data quality

Most of these data are generated automatically and are frequently updated. Quality checks on data are not normally performed. It is possible for incorrect values to appear. Refer to information at About Latest Weather Observations and please check the disclaimer before using these data.